createdAt,value
2019-02-21T00:02:02.016Z,99.90
2019-02-21T00:04:30.417Z,99.90
2019-02-21T00:06:58.823Z,99.90
2019-02-21T00:09:27.228Z,99.90
2019-02-21T00:11:55.631Z,99.90
2019-02-21T00:14:24.026Z,99.90
2019-02-21T00:16:52.428Z,99.90
2019-02-21T00:19:20.835Z,99.90
2019-02-21T00:21:49.234Z,99.90
2019-02-21T00:24:17.664Z,99.90
2019-02-21T00:26:46.139Z,99.90
2019-02-21T00:29:14.553Z,99.90
2019-02-21T00:31:42.961Z,99.90
2019-02-21T00:34:11.422Z,99.90
2019-02-21T00:36:39.819Z,99.90
2019-02-21T00:39:08.312Z,99.90
2019-02-21T00:41:36.711Z,99.90
2019-02-21T00:44:05.378Z,99.90
2019-02-21T00:46:33.832Z,99.90
2019-02-21T00:49:02.235Z,99.90
2019-02-21T00:51:30.636Z,99.90
2019-02-21T00:53:59.041Z,99.90
2019-02-21T00:56:27.438Z,99.90
2019-02-21T00:58:55.841Z,99.90
2019-02-21T01:01:24.292Z,99.90
2019-02-21T01:03:52.694Z,99.90
2019-02-21T01:06:21.115Z,99.90
2019-02-21T01:08:49.551Z,99.90
2019-02-21T01:11:17.949Z,99.90
2019-02-21T01:13:46.674Z,99.90
2019-02-21T01:16:15.077Z,99.90
2019-02-21T01:18:43.487Z,99.90
2019-02-21T01:21:11.908Z,99.90
2019-02-21T01:23:40.321Z,99.90
2019-02-21T01:26:08.716Z,99.90
2019-02-21T01:28:37.119Z,99.90
2019-02-21T01:31:05.523Z,99.90
2019-02-21T01:33:33.955Z,99.90
2019-02-21T01:36:02.367Z,99.90
2019-02-21T01:38:30.783Z,99.90
2019-02-21T01:40:59.192Z,99.90
2019-02-21T01:43:27.600Z,99.90
2019-02-21T01:45:56.072Z,99.90
2019-02-21T01:48:24.473Z,99.90
2019-02-21T01:50:52.877Z,99.90
2019-02-21T01:53:21.284Z,99.90
2019-02-21T01:55:49.692Z,99.90
2019-02-21T01:58:18.179Z,99.90
2019-02-21T02:00:46.651Z,99.90
2019-02-21T02:03:15.051Z,99.90
2019-02-21T02:05:43.457Z,99.90
2019-02-21T02:08:11.853Z,99.90
2019-02-21T02:10:40.256Z,99.90
2019-02-21T02:13:08.646Z,99.90
2019-02-21T02:15:37.101Z,99.90
2019-02-21T02:18:05.512Z,99.90
2019-02-21T02:20:33.899Z,99.90
2019-02-21T02:23:02.300Z,99.90
2019-02-21T02:25:30.721Z,99.90
2019-02-21T02:27:59.116Z,99.90
2019-02-21T02:30:27.601Z,99.90
2019-02-21T02:32:55.996Z,99.90
2019-02-21T02:35:24.394Z,99.90
2019-02-21T02:37:52.796Z,99.90
2019-02-21T02:40:21.198Z,99.90
2019-02-21T02:42:49.604Z,99.90
2019-02-21T02:45:18.003Z,99.90
2019-02-21T02:47:46.412Z,99.90
2019-02-21T02:50:14.804Z,99.90
2019-02-21T02:52:43.215Z,99.90
2019-02-21T02:55:11.628Z,99.90
2019-02-21T02:57:40.027Z,99.90
2019-02-21T03:00:11.569Z,99.90
2019-02-21T03:02:39.975Z,99.90
2019-02-21T03:05:08.513Z,99.90
2019-02-21T03:07:36.914Z,99.90
2019-02-21T03:10:08.528Z,99.90
2019-02-21T03:12:36.930Z,99.90
2019-02-21T03:15:07.285Z,99.90
2019-02-21T03:17:35.683Z,99.90
2019-02-21T03:20:05.029Z,99.90
2019-02-21T03:22:33.454Z,99.90
2019-02-21T03:25:01.840Z,99.90
2019-02-21T03:27:30.326Z,99.90
2019-02-21T03:29:58.719Z,99.90
2019-02-21T03:32:27.793Z,99.90
2019-02-21T03:34:56.215Z,99.90
2019-02-21T03:37:24.625Z,99.90
2019-02-21T03:39:53.024Z,99.90
2019-02-21T03:42:21.458Z,99.90
2019-02-21T03:44:49.877Z,99.90
2019-02-21T03:47:18.280Z,99.90
2019-02-21T03:49:46.684Z,99.90
2019-02-21T03:52:15.124Z,99.90
2019-02-21T03:54:43.522Z,99.90
2019-02-21T03:57:11.940Z,99.90
2019-02-21T03:59:40.544Z,99.90
2019-02-21T04:02:08.976Z,99.90
2019-02-21T04:04:37.356Z,99.90
2019-02-21T04:07:05.840Z,99.90
2019-02-21T04:09:34.244Z,99.90
2019-02-21T04:12:02.631Z,99.90
2019-02-21T04:14:31.874Z,99.90
2019-02-21T04:17:00.280Z,99.90
2019-02-21T04:19:28.769Z,99.90
2019-02-21T04:21:57.238Z,99.90
2019-02-21T04:24:25.655Z,99.90
2019-02-21T04:26:54.145Z,99.90
2019-02-21T04:29:22.590Z,99.90
2019-02-21T04:31:51.039Z,99.90
2019-02-21T04:34:19.439Z,99.90
2019-02-21T04:36:47.841Z,99.90
2019-02-21T04:39:16.256Z,99.90
2019-02-21T04:41:44.662Z,99.90
2019-02-21T04:44:13.063Z,99.90
2019-02-21T04:46:41.447Z,99.90
2019-02-21T04:49:09.857Z,99.90
2019-02-21T04:51:38.278Z,99.90
2019-02-21T04:54:06.676Z,99.90
2019-02-21T04:56:35.067Z,99.90
2019-02-21T04:59:05.884Z,99.90
2019-02-21T05:01:33.634Z,99.90
2019-02-21T05:04:04.600Z,99.90
2019-02-21T05:06:32.249Z,99.90
2019-02-21T05:09:00.642Z,99.90
2019-02-21T05:11:29.032Z,99.90
2019-02-21T05:13:57.458Z,99.90
2019-02-21T05:16:25.848Z,99.90
2019-02-21T05:18:54.434Z,99.90
2019-02-21T05:21:23.039Z,99.90
2019-02-21T05:23:51.448Z,99.90
2019-02-21T05:26:22.268Z,99.90
2019-02-21T05:28:50.675Z,99.90
2019-02-21T05:31:30.963Z,99.90
2019-02-21T05:34:01.012Z,99.90
2019-02-21T05:36:33.638Z,99.90
2019-02-21T05:39:03.680Z,99.90
2019-02-21T05:41:36.507Z,99.90
2019-02-21T05:44:24.368Z,99.90
2019-02-21T05:47:12.486Z,99.90
2019-02-21T05:49:45.468Z,99.90
2019-02-21T05:52:24.342Z,99.90
2019-02-21T05:54:54.390Z,99.90
2019-02-21T05:57:36.988Z,99.90
2019-02-21T06:00:18.134Z,99.90
2019-02-21T06:02:53.396Z,99.90
2019-02-21T06:05:19.916Z,99.90
2019-02-21T06:08:01.712Z,99.90
2019-02-21T06:10:40.759Z,99.90
2019-02-21T06:13:22.811Z,99.90
2019-02-21T06:15:58.755Z,99.90
2019-02-21T06:18:40.718Z,99.90
2019-02-21T06:21:10.777Z,99.90
2019-02-21T06:23:49.576Z,99.90
2019-02-21T06:26:19.627Z,99.90
2019-02-21T06:28:49.679Z,99.90
2019-02-21T06:31:18.164Z,99.90
2019-02-21T06:33:46.566Z,99.90
2019-02-21T06:36:14.966Z,99.90
2019-02-21T06:38:43.364Z,99.90
2019-02-21T06:41:11.816Z,99.90
2019-02-21T06:43:40.297Z,99.90
2019-02-21T06:46:08.694Z,99.90
2019-02-21T06:48:37.089Z,99.90
2019-02-21T06:51:05.514Z,99.90
2019-02-21T06:53:33.953Z,99.90
2019-02-21T06:56:02.352Z,99.90
2019-02-21T06:58:30.774Z,99.90
2019-02-21T07:00:59.183Z,99.90
2019-02-21T07:03:29.068Z,99.90
2019-02-21T07:05:57.670Z,99.90
2019-02-21T07:08:26.078Z,99.90
2019-02-21T07:11:05.512Z,99.90
2019-02-21T07:13:26.854Z,99.90
2019-02-21T07:15:54.783Z,99.90
2019-02-21T07:18:23.172Z,99.90
2019-02-21T07:20:51.573Z,99.90
2019-02-21T07:23:20.424Z,99.90
2019-02-21T07:25:51.030Z,99.90
2019-02-21T07:28:19.446Z,99.90
2019-02-21T07:30:48.547Z,99.90
2019-02-21T07:33:27.801Z,99.90
2019-02-21T07:35:47.114Z,99.90
2019-02-21T07:38:17.202Z,99.90
2019-02-21T07:40:45.803Z,99.90
2019-02-21T07:43:14.272Z,99.90
2019-02-21T07:45:42.655Z,99.90
2019-02-21T07:48:11.102Z,99.90
2019-02-21T07:50:39.501Z,99.90
2019-02-21T07:53:07.892Z,99.90
2019-02-21T07:55:36.314Z,99.90
2019-02-21T07:58:04.785Z,99.90
2019-02-21T08:00:33.177Z,99.90
2019-02-21T08:03:01.916Z,99.90
2019-02-21T08:05:30.410Z,99.90
2019-02-21T08:07:58.808Z,99.90
2019-02-21T08:10:33.617Z,97.00
2019-02-21T08:12:57.406Z,92.90
2019-02-21T08:15:27.625Z,92.00
2019-02-21T08:17:56.092Z,88.10
2019-02-21T08:20:33.583Z,84.00
2019-02-21T08:22:54.640Z,81.30
2019-02-21T08:25:23.095Z,79.40
2019-02-21T08:27:51.504Z,77.00
2019-02-21T08:30:19.918Z,72.70
2019-02-21T08:33:03.203Z,70.20
2019-02-21T08:35:31.646Z,67.50
2019-02-21T08:38:00.082Z,64.20
2019-02-21T08:40:28.511Z,65.50
2019-02-21T08:42:56.928Z,69.80
2019-02-21T08:45:25.333Z,74.20
2019-02-21T08:47:53.753Z,74.90
2019-02-21T08:50:22.569Z,72.80
2019-02-21T08:52:51.029Z,78.80
2019-02-21T08:55:19.532Z,83.50
2019-02-21T08:57:47.936Z,85.80
2019-02-21T09:00:16.810Z,86.30
2019-02-21T09:02:45.222Z,84.70
2019-02-21T09:05:14.161Z,86.00
2019-02-21T09:07:42.652Z,87.90
2019-02-21T09:10:12.291Z,90.20
2019-02-21T09:12:40.845Z,91.20
2019-02-21T09:15:12.288Z,92.10
2019-02-21T09:17:40.707Z,92.50
2019-02-21T09:20:10.589Z,91.30
2019-02-21T09:22:39.021Z,90.90
2019-02-21T09:25:10.069Z,91.30
2019-02-21T09:27:38.488Z,92.30
2019-02-21T09:30:10.003Z,93.30
2019-02-21T09:32:38.436Z,94.30
2019-02-21T09:35:07.291Z,95.00
2019-02-21T09:37:35.712Z,95.80
2019-02-21T09:40:06.576Z,96.30
2019-02-21T09:42:35.121Z,97.30
2019-02-21T09:45:04.560Z,98.20
2019-02-21T09:47:33.005Z,99.20
2019-02-21T09:50:01.534Z,99.90
2019-02-21T09:52:29.957Z,99.90
2019-02-21T09:54:58.357Z,99.90
2019-02-21T09:57:26.781Z,99.90
2019-02-21T09:59:55.179Z,99.90
2019-02-21T10:02:23.584Z,99.90
2019-02-21T10:04:52.000Z,99.90
2019-02-21T10:07:20.419Z,99.90
2019-02-21T10:09:48.828Z,99.90
2019-02-21T10:12:17.491Z,99.90
2019-02-21T10:14:45.943Z,99.90
2019-02-21T10:17:14.337Z,99.90
2019-02-21T10:19:42.748Z,99.90
2019-02-21T10:22:11.213Z,99.90
2019-02-21T10:24:39.616Z,99.90
2019-02-21T10:27:08.039Z,99.90
2019-02-21T10:29:36.464Z,99.90
2019-02-21T10:32:04.951Z,99.90
2019-02-21T10:34:42.753Z,99.90
2019-02-21T10:37:03.492Z,99.90
2019-02-21T10:39:31.892Z,99.90
2019-02-21T10:42:00.318Z,99.90
2019-02-21T10:44:28.736Z,99.90
2019-02-21T10:46:57.162Z,99.90
2019-02-21T10:49:25.651Z,99.90
2019-02-21T10:51:54.058Z,99.50
2019-02-21T10:54:22.469Z,94.00
2019-02-21T10:56:50.884Z,88.80
2019-02-21T10:59:19.302Z,84.90
2019-02-21T11:01:47.703Z,80.10
2019-02-21T11:04:16.139Z,80.00
2019-02-21T11:06:44.556Z,81.80
2019-02-21T11:09:20.776Z,84.00
2019-02-21T11:11:49.195Z,85.30
2019-02-21T11:14:17.600Z,84.10
2019-02-21T11:16:46.024Z,80.90
2019-02-21T11:19:14.811Z,78.60
2019-02-21T11:21:43.270Z,78.20
2019-02-21T11:24:11.659Z,76.50
2019-02-21T11:26:40.066Z,76.60
2019-02-21T11:29:08.476Z,74.80
2019-02-21T11:31:37.058Z,74.60
2019-02-21T11:34:05.464Z,75.00
2019-02-21T11:36:33.864Z,76.30
2019-02-21T11:39:02.274Z,79.50
2019-02-21T11:41:30.871Z,80.00
2019-02-21T11:43:59.364Z,80.50
2019-02-21T11:46:27.772Z,80.20
2019-02-21T11:48:56.183Z,79.40
2019-02-21T11:51:24.582Z,79.10
2019-02-21T11:53:52.986Z,79.40
2019-02-21T11:56:21.386Z,80.10
2019-02-21T11:58:49.802Z,81.40
2019-02-21T12:01:18.223Z,81.60
2019-02-21T12:03:47.905Z,82.90
2019-02-21T12:06:16.372Z,83.50
2019-02-21T12:08:45.001Z,85.00
2019-02-21T12:11:13.410Z,84.00
2019-02-21T12:13:41.925Z,83.40
2019-02-21T12:16:10.834Z,83.70
2019-02-21T12:18:39.248Z,84.10
2019-02-21T12:21:07.663Z,83.60
2019-02-21T12:23:36.067Z,83.20
2019-02-21T12:26:04.543Z,84.00
2019-02-21T12:28:33.024Z,85.00
2019-02-21T12:31:01.428Z,86.00
2019-02-21T12:33:29.846Z,86.90
2019-02-21T12:35:59.507Z,87.20
2019-02-21T12:38:28.068Z,86.80
2019-02-21T12:40:56.491Z,87.10
2019-02-21T12:43:24.900Z,86.30
2019-02-21T12:45:56.391Z,84.70
2019-02-21T12:48:24.799Z,83.90
2019-02-21T12:50:53.209Z,83.80
2019-02-21T12:53:21.616Z,81.40
2019-02-21T12:55:50.016Z,79.50
2019-02-21T12:58:18.450Z,78.70
2019-02-21T13:00:46.857Z,78.40
2019-02-21T13:03:15.245Z,75.50
2019-02-21T13:05:44.644Z,75.10
2019-02-21T13:08:13.160Z,75.50
2019-02-21T13:10:41.584Z,75.80
2019-02-21T13:13:09.992Z,76.00
2019-02-21T13:15:38.416Z,76.60
2019-02-21T13:18:15.333Z,78.20
2019-02-21T13:20:36.936Z,78.30
2019-02-21T13:23:05.473Z,79.30
2019-02-21T13:25:33.864Z,80.50
2019-02-21T13:28:02.261Z,81.10
2019-02-21T13:30:30.709Z,82.00
2019-02-21T13:32:59.443Z,82.60
2019-02-21T13:35:29.402Z,83.80
2019-02-21T13:37:57.839Z,84.70
2019-02-21T13:40:26.265Z,86.50
2019-02-21T13:42:54.679Z,87.10
2019-02-21T13:45:23.097Z,88.00
2019-02-21T13:47:51.501Z,88.60
2019-02-21T13:50:20.694Z,89.00
2019-02-21T13:52:49.128Z,90.00
2019-02-21T13:55:17.546Z,89.80
2019-02-21T13:57:45.977Z,89.40
2019-02-21T14:00:17.023Z,89.70
2019-02-21T14:02:45.445Z,89.40
2019-02-21T14:05:14.343Z,89.10
2019-02-21T14:07:42.747Z,88.40
2019-02-21T14:10:13.013Z,88.60
2019-02-21T14:12:41.434Z,89.10
2019-02-21T14:15:15.536Z,89.00
2019-02-21T14:17:46.481Z,89.20
2019-02-21T14:20:14.219Z,89.20
2019-02-21T14:22:42.640Z,89.50
2019-02-21T14:25:11.405Z,89.50
2019-02-21T14:27:39.817Z,90.00
2019-02-21T14:30:11.573Z,90.20
2019-02-21T14:32:40.009Z,90.20
2019-02-21T14:35:11.355Z,90.60
2019-02-21T14:37:39.759Z,91.00
2019-02-21T14:40:12.407Z,90.90
2019-02-21T14:42:41.180Z,91.40
2019-02-21T14:45:15.060Z,90.80
2019-02-21T14:47:43.458Z,91.10
2019-02-21T14:50:12.511Z,91.00
2019-02-21T14:52:40.992Z,91.10
2019-02-21T14:55:11.922Z,91.30
2019-02-21T14:57:41.415Z,91.20
2019-02-21T15:00:13.574Z,91.40
2019-02-21T15:02:42.004Z,91.60
2019-02-21T15:05:10.469Z,91.60
2019-02-21T15:07:38.892Z,91.70
2019-02-21T15:10:09.246Z,91.80
2019-02-21T15:12:37.648Z,91.80
2019-02-21T15:15:11.284Z,91.50
2019-02-21T15:17:39.700Z,91.60
2019-02-21T15:20:10.648Z,92.50
2019-02-21T15:22:39.059Z,92.40
2019-02-21T15:25:08.831Z,92.60
2019-02-21T15:27:37.236Z,92.40
2019-02-21T15:30:22.391Z,92.30
2019-02-21T15:32:50.792Z,92.30
2019-02-21T15:35:19.723Z,92.10
2019-02-21T15:37:48.961Z,91.90
2019-02-21T15:40:17.460Z,92.20
2019-02-21T15:42:45.867Z,92.50
2019-02-21T15:45:26.624Z,92.20
2019-02-21T15:47:55.096Z,92.40
2019-02-21T15:50:23.788Z,92.50
2019-02-21T15:52:54.135Z,92.50
2019-02-21T15:55:22.979Z,92.60
2019-02-21T15:58:00.540Z,92.80
2019-02-21T16:00:24.156Z,93.20
2019-02-21T16:02:52.598Z,93.20
2019-02-21T16:05:21.068Z,93.20
2019-02-21T16:07:49.502Z,93.20
2019-02-21T16:10:27.949Z,93.30
2019-02-21T16:12:57.681Z,93.60
2019-02-21T16:15:26.239Z,93.70
2019-02-21T16:17:56.243Z,93.90
2019-02-21T16:20:24.631Z,94.30
2019-02-21T16:22:53.039Z,94.50
2019-02-21T16:25:23.400Z,94.90
2019-02-21T16:27:51.847Z,94.80
2019-02-21T16:30:22.002Z,94.90
2019-02-21T16:32:50.401Z,95.20
2019-02-21T16:35:20.298Z,95.70
2019-02-21T16:37:48.710Z,95.50
2019-02-21T16:40:20.496Z,95.60
2019-02-21T16:42:48.926Z,95.90
2019-02-21T16:45:19.746Z,96.00
2019-02-21T16:47:48.152Z,96.20
2019-02-21T16:50:16.687Z,96.40
2019-02-21T16:52:45.173Z,96.70
2019-02-21T16:55:18.708Z,96.90
2019-02-21T16:57:47.368Z,97.40
2019-02-21T17:00:20.692Z,97.30
2019-02-21T17:02:49.172Z,97.70
2019-02-21T17:05:17.650Z,97.80
2019-02-21T17:07:46.047Z,98.20
2019-02-21T17:10:15.899Z,98.40
2019-02-21T17:12:44.388Z,98.60
2019-02-21T17:15:19.296Z,98.90
2019-02-21T17:17:47.720Z,99.30
2019-02-21T17:20:21.568Z,99.60
2019-02-21T17:22:49.996Z,99.90
2019-02-21T17:25:18.455Z,99.90
2019-02-21T17:27:47.395Z,99.90
2019-02-21T17:30:17.052Z,99.90
2019-02-21T17:32:48.861Z,99.90
2019-02-21T17:35:17.818Z,99.90
2019-02-21T17:37:46.235Z,99.90
2019-02-21T17:40:24.967Z,99.90
2019-02-21T17:42:53.388Z,99.90
2019-02-21T17:45:22.342Z,99.90
2019-02-21T17:47:50.862Z,99.90
2019-02-21T17:50:19.990Z,99.90
2019-02-21T17:52:48.407Z,99.90
2019-02-21T17:55:17.531Z,99.90
2019-02-21T17:57:46.081Z,99.90
2019-02-21T18:00:29.018Z,99.90
2019-02-21T18:02:57.445Z,99.90
2019-02-21T18:05:25.847Z,99.90
2019-02-21T18:07:54.272Z,99.90
2019-02-21T18:10:22.705Z,99.90
2019-02-21T18:12:51.097Z,99.90
2019-02-21T18:15:19.826Z,99.90
2019-02-21T18:17:48.221Z,99.90
2019-02-21T18:20:17.081Z,99.90
2019-02-21T18:22:45.487Z,99.90
2019-02-21T18:25:23.391Z,99.90
2019-02-21T18:27:51.800Z,99.90
2019-02-21T18:30:20.296Z,99.90
2019-02-21T18:32:48.719Z,99.90
2019-02-21T18:35:17.134Z,99.90
2019-02-21T18:37:47.706Z,99.90
2019-02-21T18:40:21.285Z,99.90
2019-02-21T18:42:49.853Z,99.90
2019-02-21T18:45:18.324Z,99.90
2019-02-21T18:47:46.721Z,99.90
2019-02-21T18:50:15.477Z,99.90
2019-02-21T18:52:44.060Z,99.90
2019-02-21T18:55:13.298Z,99.90
2019-02-21T18:57:41.732Z,99.90
2019-02-21T19:00:16.840Z,99.90
2019-02-21T19:02:45.246Z,99.90
2019-02-21T19:05:13.658Z,99.90
2019-02-21T19:07:42.135Z,99.90
2019-02-21T19:10:13.536Z,99.90
2019-02-21T19:12:42.005Z,99.90
2019-02-21T19:15:11.858Z,99.90
2019-02-21T19:17:40.268Z,99.90
2019-02-21T19:20:16.956Z,99.90
2019-02-21T19:22:46.824Z,99.90
2019-02-21T19:25:15.393Z,99.90
2019-02-21T19:27:43.956Z,99.90
2019-02-21T19:30:27.305Z,99.90
2019-02-21T19:32:55.711Z,99.90
2019-02-21T19:35:24.467Z,99.90
2019-02-21T19:37:52.862Z,99.90
2019-02-21T19:40:21.287Z,99.90
2019-02-21T19:42:49.718Z,99.90
2019-02-21T19:45:18.287Z,99.90
2019-02-21T19:47:46.692Z,99.90
2019-02-21T19:50:15.130Z,99.90
2019-02-21T19:52:43.608Z,99.90
2019-02-21T19:55:12.535Z,99.90
2019-02-21T19:57:41.123Z,99.90
2019-02-21T20:00:13.105Z,99.90
2019-02-21T20:02:41.509Z,99.90
2019-02-21T20:05:10.244Z,99.90
2019-02-21T20:07:38.722Z,99.90
2019-02-21T20:10:08.567Z,99.90
2019-02-21T20:12:36.980Z,99.90
2019-02-21T20:15:07.931Z,99.90
2019-02-21T20:17:36.320Z,99.90
2019-02-21T20:20:17.208Z,99.90
2019-02-21T20:22:45.643Z,99.90
2019-02-21T20:25:14.050Z,99.90
2019-02-21T20:27:42.472Z,99.90
2019-02-21T20:30:20.171Z,99.90
2019-02-21T20:32:48.632Z,99.90
2019-02-21T20:35:17.356Z,99.90
2019-02-21T20:37:45.764Z,99.90
2019-02-21T20:40:14.908Z,99.90
2019-02-21T20:42:43.325Z,99.90
2019-02-21T20:45:15.284Z,99.90
2019-02-21T20:47:44.003Z,99.90
2019-02-21T20:50:12.767Z,99.90
2019-02-21T20:52:41.403Z,99.90
2019-02-21T20:55:12.818Z,99.90
2019-02-21T20:57:41.224Z,99.90
2019-02-21T21:00:18.285Z,99.90
2019-02-21T21:02:46.768Z,99.90
2019-02-21T21:05:15.304Z,99.90
2019-02-21T21:07:43.781Z,99.90
2019-02-21T21:10:14.295Z,99.90
2019-02-21T21:12:42.684Z,99.90
2019-02-21T21:15:13.823Z,99.90
2019-02-21T21:17:42.225Z,99.90
2019-02-21T21:20:16.809Z,99.90
2019-02-21T21:22:44.937Z,99.90
2019-02-21T21:25:15.779Z,99.90
2019-02-21T21:27:44.259Z,99.90
2019-02-21T21:30:14.634Z,99.90
2019-02-21T21:32:43.123Z,99.90
2019-02-21T21:35:11.927Z,99.90
2019-02-21T21:37:40.342Z,99.90
2019-02-21T21:40:11.822Z,99.90
2019-02-21T21:42:40.226Z,99.90
2019-02-21T21:45:14.286Z,99.90
2019-02-21T21:47:42.746Z,99.90
2019-02-21T21:50:13.698Z,99.90
2019-02-21T21:52:42.095Z,99.90
2019-02-21T21:55:10.647Z,99.90
2019-02-21T21:57:39.059Z,99.90
2019-02-21T22:00:18.056Z,99.90
2019-02-21T22:02:46.782Z,99.90
2019-02-21T22:05:15.276Z,99.90
2019-02-21T22:07:43.697Z,99.90
2019-02-21T22:10:15.842Z,99.90
2019-02-21T22:12:44.455Z,99.90
2019-02-21T22:15:18.320Z,99.90
2019-02-21T22:17:46.727Z,99.90
2019-02-21T22:20:15.133Z,99.90
2019-02-21T22:22:43.564Z,99.90
2019-02-21T22:25:13.204Z,99.90
2019-02-21T22:27:41.612Z,99.90
2019-02-21T22:30:16.144Z,99.90
2019-02-21T22:32:44.569Z,99.90
2019-02-21T22:35:12.964Z,99.90
2019-02-21T22:37:41.447Z,99.90
2019-02-21T22:40:17.446Z,99.90
2019-02-21T22:42:45.865Z,99.90
2019-02-21T22:45:14.423Z,99.90
2019-02-21T22:47:42.914Z,99.90
2019-02-21T22:50:16.091Z,99.90
2019-02-21T22:52:44.560Z,99.90
2019-02-21T22:55:13.039Z,99.90
2019-02-21T22:57:41.458Z,99.90
2019-02-21T23:00:26.729Z,99.90
2019-02-21T23:02:55.605Z,99.90
2019-02-21T23:05:58.561Z,99.90
2019-02-21T23:08:42.103Z,99.90
2019-02-21T23:11:10.602Z,99.90
2019-02-21T23:13:39.151Z,99.90
2019-02-21T23:16:07.644Z,99.90
2019-02-21T23:18:36.211Z,99.90
2019-02-21T23:21:04.748Z,99.90
2019-02-21T23:23:33.159Z,99.90
2019-02-21T23:26:01.580Z,99.90
2019-02-21T23:28:30.019Z,99.90
2019-02-21T23:30:58.425Z,99.90
2019-02-21T23:33:27.711Z,99.90
2019-02-21T23:35:56.119Z,99.90
2019-02-21T23:38:24.537Z,99.90
2019-02-21T23:40:52.933Z,99.90
2019-02-21T23:43:21.378Z,99.90
2019-02-21T23:45:49.848Z,99.90
2019-02-21T23:48:18.278Z,99.90
2019-02-21T23:50:46.714Z,99.90
2019-02-21T23:53:15.125Z,99.90
2019-02-21T23:55:43.542Z,99.90
2019-02-21T23:58:11.970Z,99.90
